createdAt,value
2019-03-02T00:00:54.401Z,7.11
2019-03-02T00:01:54.449Z,7.23
2019-03-02T00:02:56.866Z,7.13
2019-03-02T00:03:54.582Z,7.14
2019-03-02T00:04:54.630Z,7.13
2019-03-02T00:05:56.992Z,7.15
2019-03-02T00:06:54.754Z,7.07
2019-03-02T00:07:54.822Z,7.14
2019-03-02T00:08:56.682Z,7.10
2019-03-02T00:09:54.935Z,7.17
2019-03-02T00:10:54.995Z,7.14
2019-03-02T00:11:56.607Z,7.17
2019-03-02T00:12:55.254Z,7.13
2019-03-02T00:13:55.179Z,7.17
2019-03-02T00:14:55.239Z,7.13
2019-03-02T00:15:55.299Z,7.06
2019-03-02T00:16:55.358Z,7.10
2019-03-02T00:17:55.427Z,7.07
2019-03-02T00:18:55.491Z,7.15
2019-03-02T00:19:55.543Z,7.07
2019-03-02T00:20:56.345Z,7.07
2019-03-02T00:21:55.663Z,7.05
2019-03-02T00:22:55.731Z,7.10
2019-03-02T00:23:55.795Z,7.10
2019-03-02T00:24:57.948Z,7.11
2019-03-02T00:25:55.908Z,7.15
2019-03-02T00:26:55.968Z,7.13
2019-03-02T00:27:58.165Z,7.06
2019-03-02T00:28:56.095Z,7.11
2019-03-02T00:29:56.151Z,7.07
2019-03-02T00:30:57.786Z,7.13
2019-03-02T00:31:56.276Z,7.17
2019-03-02T00:32:56.347Z,7.15
2019-03-02T00:33:57.473Z,7.07
2019-03-02T00:34:56.456Z,7.14
2019-03-02T00:35:56.516Z,7.14
2019-03-02T00:36:58.516Z,7.10
2019-03-02T00:37:56.644Z,7.20
2019-03-02T00:38:56.709Z,7.14
2019-03-02T00:39:56.760Z,7.14
2019-03-02T00:40:56.820Z,7.21
2019-03-02T00:41:56.887Z,7.13
2019-03-02T00:42:56.948Z,7.10
2019-03-02T00:43:59.814Z,7.13
2019-03-02T00:44:57.064Z,7.17
2019-03-02T00:45:57.447Z,7.21
2019-03-02T00:46:59.597Z,7.10
2019-03-02T00:47:57.348Z,7.10
2019-03-02T00:48:57.305Z,7.10
2019-03-02T00:50:00.795Z,7.20
2019-03-02T00:50:57.434Z,7.15
2019-03-02T00:51:57.489Z,7.11
2019-03-02T00:52:59.200Z,7.17
2019-03-02T00:53:57.617Z,7.18
2019-03-02T00:54:58.402Z,7.11
2019-03-02T00:55:57.733Z,7.14
2019-03-02T00:56:57.793Z,7.11
2019-03-02T00:57:57.861Z,7.15
2019-03-02T00:59:00.619Z,7.14
2019-03-02T00:59:57.977Z,7.13
2019-03-02T01:00:58.037Z,7.13
2019-03-02T01:02:00.803Z,7.13
2019-03-02T01:02:58.349Z,7.21
2019-03-02T01:03:58.220Z,7.13
2019-03-02T01:05:01.815Z,7.24
2019-03-02T01:05:58.337Z,7.14
2019-03-02T01:06:58.401Z,7.11
2019-03-02T01:07:59.801Z,7.10
2019-03-02T01:08:58.534Z,7.07
2019-03-02T01:09:58.582Z,7.13
2019-03-02T01:10:59.046Z,7.14
2019-03-02T01:11:58.706Z,7.13
2019-03-02T01:12:58.772Z,7.14
2019-03-02T01:13:58.834Z,7.11
2019-03-02T01:14:58.886Z,7.10
2019-03-02T01:15:58.950Z,7.15
2019-03-02T01:16:59.006Z,7.13
2019-03-02T01:17:59.074Z,7.11
2019-03-02T01:18:59.138Z,7.14
2019-03-02T01:19:59.191Z,7.11
2019-03-02T01:21:00.384Z,7.07
2019-03-02T01:21:59.310Z,7.06
2019-03-02T01:22:59.378Z,7.07
2019-03-02T01:23:59.721Z,7.05
2019-03-02T01:24:59.494Z,7.05
2019-03-02T01:25:59.554Z,7.11
2019-03-02T01:27:00.614Z,7.11
2019-03-02T01:27:59.683Z,7.13
2019-03-02T01:28:59.745Z,7.06
2019-03-02T01:29:59.802Z,7.05
2019-03-02T01:31:01.841Z,7.13
2019-03-02T01:31:59.920Z,7.06
2019-03-02T01:32:59.987Z,7.05
2019-03-02T01:34:00.642Z,7.05
2019-03-02T01:35:00.201Z,7.11
2019-03-02T01:36:00.167Z,7.10
2019-03-02T01:37:00.230Z,7.06
2019-03-02T01:38:00.307Z,7.06
2019-03-02T01:39:00.343Z,7.10
2019-03-02T01:40:00.865Z,7.07
2019-03-02T01:41:00.463Z,7.11
2019-03-02T01:42:00.530Z,7.06
2019-03-02T01:43:01.974Z,7.06
2019-03-02T01:44:00.655Z,7.10
2019-03-02T01:45:00.707Z,7.10
2019-03-02T01:46:03.401Z,7.02
2019-03-02T01:47:00.832Z,7.06
2019-03-02T01:48:00.900Z,7.02
2019-03-02T01:49:01.563Z,7.03
2019-03-02T01:50:01.012Z,7.07
2019-03-02T01:51:01.072Z,7.05
2019-03-02T01:52:01.136Z,7.05
2019-03-02T01:53:01.218Z,7.06
2019-03-02T01:54:01.256Z,7.07
2019-03-02T01:55:01.317Z,7.07
2019-03-02T01:56:02.796Z,7.03
2019-03-02T01:57:01.437Z,6.99
2019-03-02T01:58:01.509Z,7.02
2019-03-02T01:59:03.972Z,6.97
2019-03-02T02:00:01.620Z,6.99
2019-03-02T02:01:01.681Z,6.95
2019-03-02T02:02:01.740Z,7.00
2019-03-02T02:03:01.808Z,6.99
2019-03-02T02:04:01.869Z,6.93
2019-03-02T02:05:01.933Z,6.92
2019-03-02T02:06:03.854Z,7.02
2019-03-02T02:07:02.045Z,6.93
2019-03-02T02:08:02.220Z,7.00
2019-03-02T02:09:05.673Z,7.03
2019-03-02T02:10:02.229Z,6.97
2019-03-02T02:11:02.289Z,6.95
2019-03-02T02:12:02.351Z,6.93
2019-03-02T02:13:02.752Z,6.96
2019-03-02T02:14:02.477Z,6.96
2019-03-02T02:15:02.530Z,6.97
2019-03-02T02:16:05.710Z,7.02
2019-03-02T02:17:02.653Z,6.93
2019-03-02T02:18:02.721Z,6.96
2019-03-02T02:19:03.367Z,6.92
2019-03-02T02:20:02.838Z,6.95
2019-03-02T02:21:02.893Z,6.95
2019-03-02T02:22:03.067Z,7.00
2019-03-02T02:23:03.026Z,6.95
2019-03-02T02:24:03.086Z,6.97
2019-03-02T02:25:03.138Z,6.89
2019-03-02T02:26:03.198Z,7.02
2019-03-02T02:27:03.262Z,6.99
2019-03-02T02:28:03.336Z,6.92
2019-03-02T02:29:04.579Z,6.99
2019-03-02T02:30:03.464Z,6.92
2019-03-02T02:31:06.252Z,6.96
2019-03-02T02:32:03.570Z,6.96
2019-03-02T02:33:05.682Z,6.99
2019-03-02T02:34:03.701Z,7.02
2019-03-02T02:35:03.751Z,6.99
2019-03-02T02:36:03.806Z,6.81
2019-03-02T02:37:03.867Z,6.99
2019-03-02T02:38:03.934Z,7.02
2019-03-02T02:39:03.999Z,6.88
2019-03-02T02:40:08.161Z,6.92
2019-03-02T02:41:04.112Z,6.89
2019-03-02T02:42:05.345Z,6.99
2019-03-02T02:43:04.237Z,7.00
2019-03-02T02:44:04.474Z,6.97
2019-03-02T02:45:04.355Z,6.97
2019-03-02T02:46:04.414Z,6.96
2019-03-02T02:47:07.093Z,6.93
2019-03-02T02:48:04.536Z,6.95
2019-03-02T02:49:05.589Z,6.96
2019-03-02T02:50:04.677Z,7.00
2019-03-02T02:51:10.210Z,6.96
2019-03-02T02:52:04.780Z,7.00
2019-03-02T02:53:06.873Z,6.89
2019-03-02T02:54:04.911Z,7.00
2019-03-02T02:55:04.973Z,6.92
2019-03-02T02:56:05.026Z,6.95
2019-03-02T02:57:05.086Z,6.97
2019-03-02T02:58:05.143Z,6.99
2019-03-02T02:59:05.203Z,7.00
2019-03-02T03:00:05.287Z,6.95
2019-03-02T03:01:05.327Z,6.97
2019-03-02T03:02:06.451Z,7.02
2019-03-02T03:03:05.448Z,6.93
2019-03-02T03:04:05.508Z,7.10
2019-03-02T03:05:09.933Z,7.00
2019-03-02T03:06:05.640Z,7.06
2019-03-02T03:07:07.246Z,7.02
2019-03-02T03:08:05.753Z,7.06
2019-03-02T03:09:09.891Z,7.03
2019-03-02T03:10:05.893Z,6.95
2019-03-02T03:11:06.620Z,7.07
2019-03-02T03:12:06.000Z,6.99
2019-03-02T03:13:06.057Z,7.02
2019-03-02T03:14:06.116Z,6.96
2019-03-02T03:15:06.200Z,6.97
2019-03-02T03:16:06.240Z,6.99
2019-03-02T03:17:06.301Z,7.05
2019-03-02T03:18:06.999Z,7.06
2019-03-02T03:19:06.420Z,7.05
2019-03-02T03:20:10.617Z,6.99
2019-03-02T03:21:06.548Z,7.00
2019-03-02T03:22:07.308Z,6.96
2019-03-02T03:23:06.665Z,7.03
2019-03-02T03:24:06.740Z,6.95
2019-03-02T03:25:06.798Z,7.05
2019-03-02T03:26:06.852Z,6.99
2019-03-02T03:27:08.845Z,7.10
2019-03-02T03:28:06.998Z,7.05
2019-03-02T03:29:09.832Z,7.05
2019-03-02T03:30:07.182Z,7.07
2019-03-02T03:31:07.152Z,7.00
2019-03-02T03:32:08.989Z,7.10
2019-03-02T03:33:07.283Z,7.05
2019-03-02T03:34:07.348Z,6.99
2019-03-02T03:35:15.498Z,7.13
2019-03-02T03:36:07.462Z,7.10
2019-03-02T03:37:08.468Z,7.15
2019-03-02T03:38:07.584Z,7.15
2019-03-02T03:39:09.105Z,7.10
2019-03-02T03:40:07.706Z,7.07
2019-03-02T03:41:07.766Z,7.10
2019-03-02T03:42:07.817Z,7.11
2019-03-02T03:43:07.883Z,7.07
2019-03-02T03:44:07.946Z,7.06
2019-03-02T03:45:08.014Z,7.14
2019-03-02T03:46:08.070Z,7.05
2019-03-02T03:47:08.123Z,7.03
2019-03-02T03:48:08.187Z,7.10
2019-03-02T03:49:08.246Z,7.11
2019-03-02T03:50:09.138Z,7.11
2019-03-02T03:51:08.377Z,7.05
2019-03-02T03:52:09.162Z,7.17
2019-03-02T03:53:08.491Z,7.06
2019-03-02T03:54:08.936Z,7.13
2019-03-02T03:55:08.615Z,7.14
2019-03-02T03:56:08.689Z,7.14
2019-03-02T03:57:08.730Z,7.13
2019-03-02T03:58:08.791Z,7.11
2019-03-02T03:59:08.855Z,7.15
2019-03-02T04:00:08.923Z,7.07
2019-03-02T04:01:17.094Z,7.07
2019-03-02T04:02:09.034Z,7.18
2019-03-02T04:03:13.526Z,7.11
2019-03-02T04:04:09.156Z,7.11
2019-03-02T04:05:10.099Z,7.10
2019-03-02T04:06:09.285Z,7.17
2019-03-02T04:07:09.340Z,7.15
2019-03-02T04:08:09.399Z,7.05
2019-03-02T04:09:10.205Z,7.14
2019-03-02T04:10:09.528Z,7.17
2019-03-02T04:11:09.587Z,7.06
2019-03-02T04:12:09.645Z,7.11
2019-03-02T04:13:09.708Z,7.14
2019-03-02T04:14:09.764Z,7.14
2019-03-02T04:15:09.833Z,7.07
2019-03-02T04:16:09.892Z,7.18
2019-03-02T04:17:09.945Z,7.06
2019-03-02T04:18:12.676Z,7.14
2019-03-02T04:19:10.067Z,7.13
2019-03-02T04:20:12.571Z,7.07
2019-03-02T04:21:10.191Z,7.15
2019-03-02T04:22:10.252Z,7.10
2019-03-02T04:23:10.308Z,7.07
2019-03-02T04:24:10.374Z,7.15
2019-03-02T04:25:12.991Z,7.11
2019-03-02T04:26:10.501Z,7.03
2019-03-02T04:27:11.147Z,7.00
2019-03-02T04:28:10.612Z,7.06
2019-03-02T04:29:11.746Z,7.14
2019-03-02T04:30:10.742Z,7.06
2019-03-02T04:31:10.801Z,7.14
2019-03-02T04:32:10.860Z,7.02
2019-03-02T04:33:10.916Z,7.06
2019-03-02T04:34:10.976Z,7.10
2019-03-02T04:35:11.047Z,7.06
2019-03-02T04:36:11.302Z,7.13
2019-03-02T04:37:11.157Z,6.99
2019-03-02T04:38:11.217Z,7.07
2019-03-02T04:39:13.632Z,7.06
2019-03-02T04:40:11.349Z,7.06
2019-03-02T04:41:11.409Z,7.06
2019-03-02T04:42:11.738Z,7.10
2019-03-02T04:43:11.521Z,7.02
2019-03-02T04:44:11.584Z,6.97
2019-03-02T04:45:11.650Z,7.06
2019-03-02T04:46:15.237Z,7.07
2019-03-02T04:47:11.765Z,7.06
2019-03-02T04:48:11.825Z,7.15
2019-03-02T04:49:14.656Z,7.05
2019-03-02T04:50:11.953Z,7.06
2019-03-02T04:51:12.013Z,7.07
2019-03-02T04:52:14.518Z,7.06
2019-03-02T04:53:12.125Z,7.03
2019-03-02T04:54:12.185Z,7.06
2019-03-02T04:55:13.450Z,7.06
2019-03-02T04:56:12.310Z,7.03
2019-03-02T04:57:12.375Z,7.11
2019-03-02T04:58:12.931Z,7.06
2019-03-02T04:59:12.491Z,7.11
2019-03-02T05:00:12.558Z,7.10
2019-03-02T05:01:12.617Z,7.10
2019-03-02T05:02:12.670Z,7.06
2019-03-02T05:03:12.733Z,7.11
2019-03-02T05:04:12.797Z,7.10
2019-03-02T05:05:12.858Z,7.03
2019-03-02T05:06:15.645Z,7.05
2019-03-02T05:07:12.974Z,7.03
2019-03-02T05:08:13.035Z,7.10
2019-03-02T05:09:13.657Z,7.10
2019-03-02T05:10:13.254Z,7.06
2019-03-02T05:11:13.214Z,7.05
2019-03-02T05:12:14.599Z,7.07
2019-03-02T05:13:13.334Z,7.06
2019-03-02T05:14:13.401Z,7.11
2019-03-02T05:15:16.246Z,7.06
2019-03-02T05:16:13.528Z,6.95
2019-03-02T05:17:13.578Z,7.06
2019-03-02T05:18:14.738Z,7.05
2019-03-02T05:19:13.698Z,7.02
2019-03-02T05:20:13.767Z,7.02
2019-03-02T05:21:13.827Z,6.92
2019-03-02T05:22:15.505Z,7.03
2019-03-02T05:23:13.943Z,6.95
2019-03-02T05:24:14.003Z,6.99
2019-03-02T05:25:15.618Z,7.03
2019-03-02T05:26:14.142Z,7.02
2019-03-02T05:27:14.196Z,7.06
2019-03-02T05:28:14.247Z,6.96
2019-03-02T05:29:14.845Z,7.07
2019-03-02T05:30:14.376Z,7.02
2019-03-02T05:31:14.435Z,6.97
2019-03-02T05:32:16.071Z,6.95
2019-03-02T05:33:14.547Z,6.97
2019-03-02T05:34:14.612Z,7.00
2019-03-02T05:35:15.439Z,6.97
2019-03-02T05:36:14.740Z,7.07
2019-03-02T05:37:14.791Z,7.05
2019-03-02T05:38:15.289Z,7.05
2019-03-02T05:39:17.311Z,7.06
2019-03-02T05:40:14.980Z,6.97
2019-03-02T05:41:15.040Z,7.05
2019-03-02T05:42:15.095Z,6.99
2019-03-02T05:43:15.156Z,7.03
2019-03-02T05:44:15.216Z,6.96
2019-03-02T05:45:15.280Z,7.05
2019-03-02T05:46:15.356Z,7.05
2019-03-02T05:47:15.396Z,7.05
2019-03-02T05:48:15.462Z,7.02
2019-03-02T05:49:15.701Z,7.05
2019-03-02T05:50:15.580Z,7.10
2019-03-02T05:51:15.652Z,7.06
2019-03-02T05:52:17.805Z,7.06
2019-03-02T05:53:15.761Z,6.97
2019-03-02T05:54:15.821Z,7.05
2019-03-02T05:55:18.041Z,6.97
2019-03-02T05:56:15.953Z,7.05
2019-03-02T05:57:16.009Z,7.05
2019-03-02T05:58:17.102Z,6.99
2019-03-02T05:59:16.125Z,7.00
2019-03-02T06:00:16.186Z,7.05
2019-03-02T06:01:16.341Z,6.99
2019-03-02T06:02:17.257Z,7.00
2019-03-02T06:03:16.370Z,6.96
2019-03-02T06:04:18.747Z,7.00
2019-03-02T06:05:16.490Z,7.00
2019-03-02T06:06:16.558Z,7.02
2019-03-02T06:07:16.617Z,7.02
2019-03-02T06:08:16.669Z,7.00
2019-03-02T06:09:16.729Z,6.99
2019-03-02T06:10:16.789Z,7.07
2019-03-02T06:11:16.858Z,7.10
2019-03-02T06:12:16.922Z,7.05
2019-03-02T06:13:18.835Z,7.00
2019-03-02T06:14:17.034Z,7.05
2019-03-02T06:15:17.094Z,7.11
2019-03-02T06:16:18.681Z,7.13
2019-03-02T06:17:17.218Z,7.06
2019-03-02T06:18:17.275Z,7.06
2019-03-02T06:19:21.257Z,6.99
2019-03-02T06:20:17.398Z,7.11
2019-03-02T06:21:17.466Z,7.02
2019-03-02T06:22:20.671Z,7.07
2019-03-02T06:23:17.578Z,7.06
2019-03-02T06:24:17.640Z,7.10
2019-03-02T06:25:20.512Z,7.06
2019-03-02T06:26:17.770Z,7.06
2019-03-02T06:27:17.826Z,7.06
2019-03-02T06:28:19.648Z,7.02
2019-03-02T06:29:17.942Z,7.06
2019-03-02T06:30:18.002Z,7.06
2019-03-02T06:31:19.142Z,7.02
2019-03-02T06:32:18.136Z,7.05
2019-03-02T06:33:18.183Z,7.10
2019-03-02T06:34:19.744Z,7.03
2019-03-02T06:35:18.306Z,7.07
2019-03-02T06:36:18.376Z,6.95
2019-03-02T06:37:19.982Z,7.10
2019-03-02T06:38:18.488Z,7.03
2019-03-02T06:39:18.547Z,6.99
2019-03-02T06:40:20.168Z,7.02
2019-03-02T06:41:18.675Z,6.99
2019-03-02T06:42:18.741Z,7.10
2019-03-02T06:43:21.851Z,7.02
2019-03-02T06:44:18.851Z,7.03
2019-03-02T06:45:18.912Z,7.02
2019-03-02T06:46:19.909Z,7.00
2019-03-02T06:47:19.052Z,7.02
2019-03-02T06:48:19.096Z,7.00
2019-03-02T06:49:19.978Z,6.95
2019-03-02T06:50:19.219Z,6.95
2019-03-02T06:51:19.275Z,6.97
2019-03-02T06:52:25.049Z,6.99
2019-03-02T06:53:19.396Z,7.05
2019-03-02T06:54:19.456Z,7.03
2019-03-02T06:55:20.911Z,6.97
2019-03-02T06:56:19.581Z,6.99
2019-03-02T06:57:19.649Z,6.95
2019-03-02T06:58:22.683Z,7.02
2019-03-02T06:59:19.760Z,6.97
2019-03-02T07:00:19.820Z,7.03
2019-03-02T07:01:20.855Z,7.11
2019-03-02T07:02:19.949Z,6.97
2019-03-02T07:03:20.008Z,7.05
2019-03-02T07:04:21.978Z,7.05
2019-03-02T07:05:20.127Z,7.05
2019-03-02T07:06:20.186Z,7.05
2019-03-02T07:07:21.761Z,6.99
2019-03-02T07:08:20.641Z,7.07
2019-03-02T07:09:20.365Z,7.05
2019-03-02T07:10:21.591Z,7.07
2019-03-02T07:11:20.489Z,7.07
2019-03-02T07:12:20.549Z,7.13
2019-03-02T07:13:21.204Z,7.10
2019-03-02T07:14:20.689Z,7.20
2019-03-02T07:15:20.729Z,7.11
2019-03-02T07:16:20.830Z,7.11
2019-03-02T07:17:20.849Z,7.17
2019-03-02T07:18:20.917Z,7.17
2019-03-02T07:19:20.981Z,7.18
2019-03-02T07:20:23.861Z,7.20
2019-03-02T07:21:21.097Z,7.17
2019-03-02T07:22:21.153Z,7.17
2019-03-02T07:23:24.527Z,7.18
2019-03-02T07:24:21.273Z,7.14
2019-03-02T07:25:21.433Z,7.15
2019-03-02T07:26:21.397Z,7.24
2019-03-02T07:27:21.457Z,7.24
2019-03-02T07:28:21.518Z,7.20
2019-03-02T07:29:21.579Z,7.23
2019-03-02T07:30:21.647Z,7.23
2019-03-02T07:31:21.705Z,7.29
2019-03-02T07:32:21.760Z,7.25
2019-03-02T07:33:21.819Z,7.20
2019-03-02T07:34:21.882Z,7.32
2019-03-02T07:35:21.950Z,7.31
2019-03-02T07:36:22.010Z,7.31
2019-03-02T07:37:22.062Z,7.38
2019-03-02T07:38:22.122Z,7.35
2019-03-02T07:39:22.182Z,7.38
2019-03-02T07:40:23.565Z,7.32
2019-03-02T07:41:23.200Z,7.35
2019-03-02T07:42:22.369Z,7.33
2019-03-02T07:43:22.430Z,7.31
2019-03-02T07:44:23.423Z,7.36
2019-03-02T07:45:22.555Z,7.32
2019-03-02T07:46:22.614Z,7.33
2019-03-02T07:47:23.996Z,7.32
2019-03-02T07:48:22.731Z,7.38
2019-03-02T07:49:22.791Z,7.45
2019-03-02T07:50:25.920Z,7.42
2019-03-02T07:51:22.919Z,7.48
2019-03-02T07:52:22.971Z,7.43
2019-03-02T07:53:24.925Z,7.53
2019-03-02T07:54:23.097Z,7.53
2019-03-02T07:55:23.253Z,7.58
2019-03-02T07:56:23.248Z,7.54
2019-03-02T07:57:23.276Z,7.54
2019-03-02T07:58:23.336Z,7.58
2019-03-02T07:59:26.593Z,7.66
2019-03-02T08:00:23.468Z,7.66
2019-03-02T08:01:23.528Z,7.67
2019-03-02T08:02:25.749Z,7.67
2019-03-02T08:03:23.640Z,7.73
2019-03-02T08:04:23.743Z,7.73
2019-03-02T08:05:23.774Z,7.73
2019-03-02T08:06:25.655Z,7.73
2019-03-02T08:07:24.276Z,7.75
2019-03-02T08:08:23.949Z,7.72
2019-03-02T08:09:25.881Z,7.70
2019-03-02T08:10:24.188Z,7.79
2019-03-02T08:11:24.130Z,7.76
2019-03-02T08:12:24.923Z,7.72
2019-03-02T08:13:24.254Z,7.72
2019-03-02T08:14:24.312Z,7.75
2019-03-02T08:15:25.805Z,7.79
2019-03-02T08:16:24.736Z,7.79
2019-03-02T08:17:24.496Z,7.73
2019-03-02T08:18:25.662Z,7.79
2019-03-02T08:19:24.616Z,7.90
2019-03-02T08:20:26.157Z,7.83
2019-03-02T08:21:24.744Z,7.79
2019-03-02T08:22:24.800Z,7.85
2019-03-02T08:23:24.861Z,7.85
2019-03-02T08:24:24.921Z,7.83
2019-03-02T08:25:24.989Z,7.85
2019-03-02T08:26:25.049Z,7.85
2019-03-02T08:27:25.104Z,7.80
2019-03-02T08:28:25.165Z,7.83
2019-03-02T08:29:25.225Z,7.83
2019-03-02T08:30:25.288Z,7.83
2019-03-02T08:31:25.449Z,7.85
2019-03-02T08:32:26.310Z,7.83
2019-03-02T08:33:25.469Z,7.85
2019-03-02T08:34:25.529Z,7.83
2019-03-02T08:35:25.591Z,7.85
2019-03-02T08:36:25.662Z,7.91
2019-03-02T08:37:26.741Z,7.85
2019-03-02T08:38:25.773Z,7.88
2019-03-02T08:39:25.835Z,7.83
2019-03-02T08:40:25.902Z,7.87
2019-03-02T08:41:26.001Z,7.87
2019-03-02T08:42:26.033Z,7.94
2019-03-02T08:43:26.078Z,7.93
2019-03-02T08:44:26.149Z,7.91
2019-03-02T08:45:27.690Z,7.94
2019-03-02T08:46:26.262Z,7.97
2019-03-02T08:47:26.418Z,7.95
2019-03-02T08:48:26.381Z,7.97
2019-03-02T08:49:26.441Z,7.98
2019-03-02T08:50:26.506Z,7.97
2019-03-02T08:51:26.566Z,7.97
2019-03-02T08:52:26.636Z,7.97
2019-03-02T08:53:26.694Z,8.00
2019-03-02T08:54:26.750Z,8.03
2019-03-02T08:55:29.745Z,7.97
2019-03-02T08:56:26.870Z,8.09
2019-03-02T08:57:27.298Z,8.03
2019-03-02T08:58:26.998Z,8.10
2019-03-02T08:59:27.054Z,8.06
2019-03-02T09:00:27.115Z,8.13
2019-03-02T09:01:27.174Z,8.09
2019-03-02T09:02:27.240Z,8.16
2019-03-02T09:03:27.314Z,8.19
2019-03-02T09:04:27.360Z,8.12
2019-03-02T09:05:48.305Z,8.10
2019-03-02T09:06:30.845Z,8.15
2019-03-02T09:07:27.543Z,8.16
2019-03-02T09:08:27.612Z,8.16
2019-03-02T09:09:27.671Z,8.12
2019-03-02T09:10:27.724Z,8.28
2019-03-02T09:11:27.787Z,8.27
2019-03-02T09:12:27.854Z,8.23
2019-03-02T09:13:30.927Z,8.26
2019-03-02T09:14:27.975Z,8.24
2019-03-02T09:15:30.073Z,8.27
2019-03-02T09:16:28.091Z,8.26
2019-03-02T09:17:28.152Z,8.31
2019-03-02T09:18:33.435Z,8.34
2019-03-02T09:19:28.275Z,8.37
2019-03-02T09:20:28.336Z,8.38
2019-03-02T09:21:28.396Z,8.37
2019-03-02T09:22:28.456Z,8.36
2019-03-02T09:23:28.524Z,8.46
2019-03-02T09:24:28.594Z,8.51
2019-03-02T09:25:29.620Z,8.48
2019-03-02T09:26:28.700Z,8.51
2019-03-02T09:27:28.763Z,8.56
2019-03-02T09:28:28.832Z,8.63
2019-03-02T09:29:28.892Z,8.64
2019-03-02T09:30:29.009Z,8.63
2019-03-02T09:31:29.008Z,8.67
2019-03-02T09:32:29.068Z,8.64
2019-03-02T09:33:29.938Z,8.67
2019-03-02T09:34:29.192Z,8.69
2019-03-02T09:35:29.253Z,8.69
2019-03-02T09:36:31.167Z,8.74
2019-03-02T09:37:29.900Z,8.78
2019-03-02T09:38:29.447Z,8.84
2019-03-02T09:39:31.808Z,8.87
2019-03-02T09:40:29.564Z,8.84
2019-03-02T09:41:29.620Z,8.89
2019-03-02T09:42:29.685Z,8.94
2019-03-02T09:43:29.749Z,8.88
2019-03-02T09:44:32.755Z,8.92
2019-03-02T09:45:29.866Z,8.88
2019-03-02T09:46:29.930Z,9.06
2019-03-02T09:47:29.989Z,8.97
2019-03-02T09:48:30.057Z,9.08
2019-03-02T09:49:30.117Z,9.08
2019-03-02T09:50:30.184Z,9.14
2019-03-02T09:51:30.235Z,9.18
2019-03-02T09:52:30.297Z,9.21
2019-03-02T09:53:30.361Z,9.08
2019-03-02T09:54:30.430Z,9.14
2019-03-02T09:55:30.481Z,9.08
2019-03-02T09:56:30.541Z,9.16
2019-03-02T09:57:30.602Z,9.22
2019-03-02T09:58:30.669Z,9.21
2019-03-02T09:59:30.733Z,9.23
2019-03-02T10:00:30.790Z,9.21
2019-03-02T10:01:30.850Z,9.23
2019-03-02T10:02:30.916Z,9.36
2019-03-02T10:03:30.982Z,9.34
2019-03-02T10:04:31.046Z,9.32
2019-03-02T10:05:31.094Z,9.40
2019-03-02T10:06:31.158Z,9.29
2019-03-02T10:07:34.588Z,9.41
2019-03-02T10:08:31.353Z,9.37
2019-03-02T10:09:31.538Z,9.36
2019-03-02T10:10:33.224Z,9.43
2019-03-02T10:11:31.470Z,9.50
2019-03-02T10:12:31.522Z,9.51
2019-03-02T10:13:31.594Z,9.58
2019-03-02T10:14:31.658Z,9.55
2019-03-02T10:15:31.714Z,9.54
2019-03-02T10:16:31.774Z,9.61
2019-03-02T10:17:34.865Z,9.56
2019-03-02T10:18:31.902Z,9.64
2019-03-02T10:19:31.967Z,9.65
2019-03-02T10:20:32.026Z,9.76
2019-03-02T10:21:32.087Z,9.69
2019-03-02T10:22:32.142Z,9.68
2019-03-02T10:23:32.315Z,9.79
2019-03-02T10:24:32.268Z,9.82
2019-03-02T10:25:32.989Z,9.74
2019-03-02T10:26:32.391Z,9.73
2019-03-02T10:27:32.455Z,9.69
2019-03-02T10:28:34.126Z,9.79
2019-03-02T10:29:32.653Z,9.79
2019-03-02T10:30:32.639Z,9.83
2019-03-02T10:31:32.704Z,9.79
2019-03-02T10:32:32.807Z,9.84
2019-03-02T10:33:32.975Z,10.02
2019-03-02T10:34:32.895Z,10.05
2019-03-02T10:35:32.951Z,10.04
2019-03-02T10:36:33.011Z,10.15
2019-03-02T10:37:33.071Z,10.09
2019-03-02T10:38:33.159Z,10.10
2019-03-02T10:39:33.669Z,10.05
2019-03-02T10:40:33.261Z,10.07
2019-03-02T10:41:33.320Z,10.15
2019-03-02T10:42:35.864Z,10.04
2019-03-02T10:43:33.452Z,10.12
2019-03-02T10:44:33.516Z,10.07
2019-03-02T10:45:33.764Z,10.13
2019-03-02T10:46:33.648Z,10.15
2019-03-02T10:47:33.693Z,10.25
2019-03-02T10:48:33.764Z,10.23
2019-03-02T10:49:33.828Z,10.28
2019-03-02T10:50:33.880Z,10.22
2019-03-02T10:51:37.457Z,10.31
2019-03-02T10:52:34.004Z,10.35
2019-03-02T10:53:34.072Z,10.35
2019-03-02T10:54:34.894Z,10.42
2019-03-02T10:55:34.202Z,10.40
2019-03-02T10:56:36.403Z,10.44
2019-03-02T10:57:34.313Z,10.53
2019-03-02T10:58:34.743Z,10.60
2019-03-02T10:59:34.448Z,10.72
2019-03-02T11:00:34.505Z,10.68
2019-03-02T11:01:34.569Z,10.92
2019-03-02T11:02:34.625Z,10.96
2019-03-02T11:03:34.697Z,10.96
2019-03-02T11:04:34.757Z,11.08
2019-03-02T11:05:34.813Z,10.99
2019-03-02T11:06:34.877Z,11.12
2019-03-02T11:07:34.937Z,11.11
2019-03-02T11:08:35.010Z,11.02
2019-03-02T11:09:36.368Z,10.99
2019-03-02T11:10:35.125Z,11.07
2019-03-02T11:11:35.189Z,11.12
2019-03-02T11:12:35.261Z,11.10
2019-03-02T11:13:35.645Z,11.26
2019-03-02T11:14:35.377Z,11.43
2019-03-02T11:15:35.437Z,11.47
2019-03-02T11:16:35.501Z,11.48
2019-03-02T11:17:35.561Z,11.57
2019-03-02T11:18:35.630Z,11.62
2019-03-02T11:19:35.832Z,11.83
2019-03-02T11:20:35.750Z,11.91
2019-03-02T11:21:35.814Z,11.88
2019-03-02T11:22:38.536Z,11.88
2019-03-02T11:23:35.938Z,11.99
2019-03-02T11:24:36.011Z,12.00
2019-03-02T11:25:36.075Z,11.99
2019-03-02T11:26:36.126Z,11.97
2019-03-02T11:27:36.194Z,11.91
2019-03-02T11:28:36.254Z,11.95
2019-03-02T11:29:36.362Z,11.97
2019-03-02T11:30:36.378Z,11.87
2019-03-02T11:31:36.442Z,11.73
2019-03-02T11:32:36.511Z,11.63
2019-03-02T11:33:36.570Z,11.70
2019-03-02T11:34:36.640Z,11.81
2019-03-02T11:35:38.503Z,12.03
2019-03-02T11:36:36.782Z,12.02
2019-03-02T11:37:36.823Z,12.09
2019-03-02T11:38:37.165Z,12.09
2019-03-02T11:39:36.956Z,12.10
2019-03-02T11:40:37.018Z,12.04
2019-03-02T11:41:37.071Z,12.00
2019-03-02T11:42:37.137Z,12.06
2019-03-02T11:43:37.204Z,12.20
2019-03-02T11:44:37.343Z,12.18
2019-03-02T11:45:38.440Z,12.17
2019-03-02T11:46:37.391Z,12.20
2019-03-02T11:47:37.465Z,12.25
2019-03-02T11:48:37.517Z,12.20
2019-03-02T11:49:38.450Z,12.15
2019-03-02T11:50:37.651Z,12.25
2019-03-02T11:51:37.711Z,12.20
2019-03-02T11:52:38.618Z,12.17
2019-03-02T11:53:37.831Z,12.18
2019-03-02T11:54:37.903Z,12.20
2019-03-02T11:55:37.964Z,12.20
2019-03-02T11:56:39.000Z,12.22
2019-03-02T11:57:38.083Z,12.17
2019-03-02T11:58:38.148Z,12.27
2019-03-02T11:59:38.349Z,12.22
2019-03-02T12:00:38.308Z,12.28
2019-03-02T12:01:38.336Z,12.35
2019-03-02T12:02:38.400Z,12.49
2019-03-02T12:03:39.094Z,12.53
2019-03-02T12:04:38.536Z,12.54
2019-03-02T12:05:40.324Z,12.46
2019-03-02T12:06:41.002Z,12.46
2019-03-02T12:07:41.964Z,12.47
2019-03-02T12:08:38.784Z,12.43
2019-03-02T12:09:38.848Z,12.42
2019-03-02T12:10:38.912Z,12.50
2019-03-02T12:11:38.968Z,12.54
2019-03-02T12:12:39.040Z,12.49
2019-03-02T12:13:39.100Z,12.54
2019-03-02T12:14:39.197Z,12.57
2019-03-02T12:15:39.229Z,12.50
2019-03-02T12:16:39.285Z,12.60
2019-03-02T12:17:41.098Z,12.62
2019-03-02T12:18:39.413Z,12.64
2019-03-02T12:19:39.485Z,12.72
2019-03-02T12:20:41.433Z,12.67
2019-03-02T12:21:39.600Z,12.72
2019-03-02T12:22:39.665Z,12.62
2019-03-02T12:23:39.733Z,12.61
2019-03-02T12:24:39.801Z,12.68
2019-03-02T12:25:40.308Z,12.68
2019-03-02T12:26:42.964Z,12.72
2019-03-02T12:27:39.997Z,12.83
2019-03-02T12:28:40.231Z,12.86
2019-03-02T12:29:41.480Z,13.03
2019-03-02T12:30:40.180Z,13.04
2019-03-02T12:31:40.245Z,13.35
2019-03-02T12:32:44.265Z,13.27
2019-03-02T12:33:40.563Z,13.30
2019-03-02T12:34:40.438Z,13.33
2019-03-02T12:35:41.410Z,13.28
2019-03-02T12:36:40.555Z,13.35
2019-03-02T12:37:40.622Z,13.30
2019-03-02T12:38:40.682Z,13.42
2019-03-02T12:39:40.749Z,13.41
2019-03-02T12:40:41.034Z,13.60
2019-03-02T12:41:40.874Z,13.60
2019-03-02T12:42:40.934Z,13.67
2019-03-02T12:43:44.261Z,13.72
2019-03-02T12:44:41.062Z,13.78
2019-03-02T12:45:41.221Z,13.72
2019-03-02T12:46:41.186Z,13.81
2019-03-02T12:47:41.251Z,13.75
2019-03-02T12:48:41.318Z,13.86
2019-03-02T12:49:43.984Z,13.79
2019-03-02T12:50:41.454Z,13.72
2019-03-02T12:51:41.516Z,13.65
2019-03-02T12:52:41.570Z,13.68
2019-03-02T12:53:41.634Z,13.68
2019-03-02T12:54:43.356Z,13.60
2019-03-02T12:55:41.767Z,13.65
2019-03-02T12:56:42.084Z,13.75
2019-03-02T12:57:45.448Z,13.83
2019-03-02T12:58:41.950Z,13.79
2019-03-02T12:59:42.015Z,13.70
2019-03-02T13:00:44.380Z,13.68
2019-03-02T13:01:43.070Z,13.54
2019-03-02T13:02:44.134Z,13.52
2019-03-02T13:03:42.271Z,13.49
2019-03-02T13:04:45.350Z,13.49
2019-03-02T13:05:42.459Z,13.31
2019-03-02T13:06:43.054Z,13.33
2019-03-02T13:07:42.525Z,13.31
2019-03-02T13:08:42.587Z,13.27
2019-03-02T13:09:42.654Z,13.33
2019-03-02T13:10:42.723Z,13.30
2019-03-02T13:11:42.807Z,13.25
2019-03-02T13:12:45.753Z,13.22
2019-03-02T13:13:42.912Z,13.19
2019-03-02T13:14:42.972Z,13.18